Columbia, Kentucky
Current Conditions -  °F | °C
As of 9:56 PM on Saturday 24 Jan 2015 (Local Time) from KEKQ Reporting Station
Clear Clear  
Wind Chill: 33°   Ceiling: Unl
Heat Index: 33°   Visibility: 10mi
Dew Point: 29°   Wind: 0mph
Humidity: 86%   Direction: NA
Pressure: 29.91"   Gusts: NA
Location:  37.1°N, 85.31°W
Report Text: KEKQ 250356Z AUTO 00000KT 10SM CLR 01/M02 A2991 RMK AO2 T00051016 SLP137
Loading
Personal Weather Stations






























Interactive Weather Map New forecast layout! Learn more

10-Day Weather Forecast

Advertisements
Track Severe Weather on mobile